createdAt,value
2023-04-18T00:01:12.515Z,12.37
2023-04-18T00:03:39.708Z,12.10
2023-04-18T00:06:06.916Z,11.30
2023-04-18T00:08:36.850Z,10.50
2023-04-18T00:11:03.826Z,12.67
2023-04-18T00:13:32.972Z,14.13
2023-04-18T00:16:02.833Z,13.27
2023-04-18T00:18:29.751Z,15.37
2023-04-18T00:20:56.918Z,15.33
2023-04-18T00:23:28.335Z,19.23
2023-04-18T00:25:55.256Z,16.90
2023-04-18T00:28:22.104Z,12.10
2023-04-18T00:30:51.502Z,15.10
2023-04-18T00:33:18.825Z,14.17
2023-04-18T00:35:48.077Z,15.43
2023-04-18T00:38:14.990Z,14.13
2023-04-18T00:40:41.904Z,17.20
2023-04-18T00:43:08.874Z,16.10
2023-04-18T00:45:38.051Z,17.83
2023-04-18T00:48:05.225Z,20.37
2023-04-18T00:50:32.112Z,18.27
2023-04-18T00:52:59.086Z,16.90
2023-04-18T00:55:26.113Z,16.03
2023-04-18T00:57:53.510Z,17.00
2023-04-18T01:00:25.741Z,13.20
2023-04-18T01:02:55.713Z,16.93
2023-04-18T01:05:23.685Z,18.17
2023-04-18T01:08:00.836Z,20.60
2023-04-18T01:10:28.750Z,18.27
2023-04-18T01:13:17.196Z,18.53
2023-04-18T01:15:50.678Z,17.57
2023-04-18T01:18:20.756Z,26.17
2023-04-18T01:20:53.061Z,28.40
2023-04-18T01:23:22.957Z,16.67
2023-04-18T01:25:57.062Z,17.27
2023-04-18T01:28:24.476Z,19.90
2023-04-18T01:30:54.543Z,15.00
2023-04-18T01:33:23.745Z,17.47
2023-04-18T01:35:52.732Z,20.73
2023-04-18T01:38:22.758Z,22.23
2023-04-18T01:40:49.762Z,19.93
2023-04-18T01:43:16.664Z,19.07
2023-04-18T01:45:45.944Z,17.63
2023-04-18T01:48:12.767Z,18.60
2023-04-18T01:50:42.602Z,17.17
2023-04-18T01:53:09.703Z,16.37
2023-04-18T01:55:36.656Z,23.97
2023-04-18T01:58:03.558Z,19.30
2023-04-18T02:00:30.592Z,25.77
2023-04-18T02:03:01.814Z,21.03
2023-04-18T02:05:28.965Z,26.33
2023-04-18T02:07:55.987Z,31.47
2023-04-18T02:10:23.023Z,23.80
2023-04-18T02:12:49.871Z,24.43
2023-04-18T02:15:16.725Z,22.03
2023-04-18T02:17:43.615Z,23.93
2023-04-18T02:20:13.412Z,21.93
2023-04-18T02:22:40.287Z,25.87
2023-04-18T02:25:08.118Z,28.13
2023-04-18T02:27:37.569Z,27.97
2023-04-18T02:30:04.860Z,31.33
2023-04-18T02:32:31.783Z,24.70
2023-04-18T02:34:58.696Z,30.10
2023-04-18T02:37:25.609Z,25.93
2023-04-18T02:39:52.531Z,26.83
2023-04-18T02:42:19.483Z,27.53
2023-04-18T02:44:48.416Z,32.43
2023-04-18T02:47:15.290Z,32.63
2023-04-18T02:49:42.105Z,26.30
2023-04-18T02:52:14.120Z,29.70
2023-04-18T02:54:41.042Z,27.93
2023-04-18T02:57:07.894Z,31.20
2023-04-18T02:59:34.827Z,80.40
2023-04-18T03:02:01.712Z,38.33
2023-04-18T03:04:28.550Z,30.97
2023-04-18T03:06:56.122Z,30.87
2023-04-18T03:09:25.205Z,38.40
2023-04-18T03:11:52.118Z,26.50
2023-04-18T03:14:26.032Z,29.43
2023-04-18T03:16:55.183Z,32.10
2023-04-18T03:19:22.555Z,30.10
2023-04-18T03:21:49.416Z,32.60
2023-04-18T03:24:18.526Z,39.03
2023-04-18T03:26:47.960Z,38.60
2023-04-18T03:29:15.031Z,32.83
2023-04-18T03:31:44.475Z,36.53
2023-04-18T03:34:11.619Z,33.50
2023-04-18T03:36:38.695Z,30.73
2023-04-18T03:39:05.621Z,36.67
2023-04-18T03:41:34.658Z,37.30
2023-04-18T03:44:03.995Z,30.60
2023-04-18T03:46:30.974Z,36.90
2023-04-18T03:48:57.875Z,39.20
2023-04-18T03:51:24.755Z,45.30
2023-04-18T03:53:51.777Z,40.90
2023-04-18T03:56:21.487Z,40.47
2023-04-18T03:58:50.514Z,43.20
2023-04-18T04:01:19.630Z,50.97
2023-04-18T04:03:50.160Z,44.33
2023-04-18T04:06:17.927Z,51.53
2023-04-18T04:08:44.805Z,44.77
2023-04-18T04:11:14.299Z,46.67
2023-04-18T04:13:41.148Z,39.13
2023-04-18T04:16:08.321Z,45.87
2023-04-18T04:18:38.164Z,46.13
2023-04-18T04:21:08.239Z,58.73
2023-04-18T04:23:42.651Z,47.90
2023-04-18T04:26:11.756Z,48.87
2023-04-18T04:28:39.894Z,43.80
2023-04-18T04:31:08.461Z,55.07
2023-04-18T04:33:38.911Z,48.47
2023-04-18T04:36:07.779Z,48.60
2023-04-18T04:38:38.459Z,55.10
2023-04-18T04:41:09.352Z,50.83
2023-04-18T04:43:41.286Z,61.90
2023-04-18T04:46:13.765Z,54.17
2023-04-18T04:48:40.948Z,54.10
2023-04-18T04:51:07.825Z,54.00
2023-04-18T04:53:37.913Z,49.17
2023-04-18T04:56:04.930Z,54.83
2023-04-18T04:58:31.894Z,67.57
2023-04-18T05:00:58.773Z,53.60
2023-04-18T05:03:26.183Z,54.20
2023-04-18T05:05:53.781Z,54.63
2023-04-18T05:08:20.626Z,51.23
2023-04-18T05:10:50.102Z,80.57
2023-04-18T05:13:17.091Z,58.07
2023-04-18T05:15:46.283Z,53.40
2023-04-18T05:18:14.294Z,51.93
2023-04-18T05:20:44.359Z,60.20
2023-04-18T05:23:18.335Z,58.93
2023-04-18T05:25:45.264Z,61.47
2023-04-18T05:28:12.127Z,55.67
2023-04-18T05:30:40.130Z,55.97
2023-04-18T05:33:07.058Z,59.00
2023-04-18T05:35:33.990Z,56.07
2023-04-18T05:38:02.962Z,54.20
2023-04-18T05:40:31.049Z,59.37
2023-04-18T05:42:57.883Z,51.07
2023-04-18T05:45:27.041Z,48.83
2023-04-18T05:47:56.474Z,54.10
2023-04-18T05:50:26.084Z,46.37
2023-04-18T05:52:53.090Z,50.47
2023-04-18T05:55:20.031Z,44.43
2023-04-18T05:57:46.900Z,54.67
2023-04-18T06:00:14.603Z,43.43
2023-04-18T06:02:41.568Z,46.47
2023-04-18T06:05:09.486Z,48.53
2023-04-18T06:07:36.652Z,49.83
2023-04-18T06:10:05.629Z,48.67
2023-04-18T06:12:32.555Z,42.43
2023-04-18T06:14:59.545Z,46.57
2023-04-18T06:17:28.644Z,42.20
2023-04-18T06:19:55.603Z,43.10
2023-04-18T06:22:22.444Z,42.83
2023-04-18T06:24:49.301Z,37.30
2023-04-18T06:27:30.161Z,41.43
2023-04-18T06:29:57.851Z,37.20
2023-04-18T06:32:24.765Z,42.83
2023-04-18T06:34:52.954Z,38.93
2023-04-18T06:37:22.416Z,39.57
2023-04-18T06:39:51.535Z,40.00
2023-04-18T06:42:19.632Z,31.33
2023-04-18T06:44:47.800Z,41.00
2023-04-18T06:47:14.975Z,32.03
2023-04-18T06:49:41.824Z,39.00
2023-04-18T06:52:11.662Z,33.77
2023-04-18T06:54:38.500Z,34.30
2023-04-18T06:57:07.708Z,41.63
2023-04-18T06:59:37.621Z,29.60
2023-04-18T07:02:10.756Z,38.67
2023-04-18T07:04:37.751Z,30.50
2023-04-18T07:07:07.099Z,28.10
2023-04-18T07:09:34.046Z,24.70
2023-04-18T07:12:03.372Z,30.63
2023-04-18T07:14:34.182Z,29.57
2023-04-18T07:17:01.970Z,22.53
2023-04-18T07:19:28.849Z,29.47
2023-04-18T07:21:55.948Z,25.00
2023-04-18T07:24:23.633Z,22.50
2023-04-18T07:26:55.069Z,21.73
2023-04-18T07:29:22.334Z,23.40
2023-04-18T07:31:49.986Z,19.70
2023-04-18T07:34:17.408Z,21.33
2023-04-18T07:36:44.369Z,22.00
2023-04-18T07:39:13.544Z,20.93
2023-04-18T07:41:43.341Z,18.70
2023-04-18T07:44:10.815Z,22.60
2023-04-18T07:46:37.733Z,17.93
2023-04-18T07:49:04.735Z,18.47
2023-04-18T07:51:31.713Z,19.60
2023-04-18T07:54:01.654Z,18.43
2023-04-18T07:56:31.034Z,19.27
2023-04-18T07:58:58.016Z,23.27
2023-04-18T08:01:27.890Z,23.53
2023-04-18T08:03:56.632Z,20.13
2023-04-18T08:06:23.769Z,19.13
2023-04-18T08:08:50.754Z,25.30
2023-04-18T08:11:20.197Z,20.67
2023-04-18T08:13:50.220Z,22.43
2023-04-18T08:16:19.312Z,16.27
2023-04-18T08:18:48.773Z,13.80
2023-04-18T08:21:15.724Z,15.03
2023-04-18T08:23:42.654Z,21.23
2023-04-18T08:26:09.574Z,18.77
2023-04-18T08:28:38.603Z,18.53
2023-04-18T08:31:08.061Z,13.47
2023-04-18T08:33:35.052Z,32.17
2023-04-18T08:36:01.945Z,11.77
2023-04-18T08:38:31.164Z,10.60
2023-04-18T08:40:58.122Z,13.97
2023-04-18T08:43:28.136Z,10.77
2023-04-18T08:46:00.105Z,10.00
2023-04-18T08:48:33.190Z,9.90
2023-04-18T08:51:03.039Z,7.53
2023-04-18T08:53:32.476Z,6.80
2023-04-18T08:56:00.324Z,15.20
2023-04-18T08:58:27.579Z,7.23
2023-04-18T09:00:57.702Z,8.07
2023-04-18T09:03:41.063Z,9.43
2023-04-18T09:06:13.821Z,8.10
2023-04-18T09:08:43.699Z,9.70
2023-04-18T09:11:31.766Z,7.73
2023-04-18T09:13:59.458Z,8.53
2023-04-18T09:16:27.815Z,6.37
2023-04-18T09:19:14.571Z,6.30
2023-04-18T09:21:48.726Z,5.90
2023-04-18T09:24:22.799Z,6.43
2023-04-18T09:26:51.345Z,6.93
2023-04-18T09:29:22.298Z,7.13
2023-04-18T09:32:01.754Z,7.10
2023-04-18T09:34:33.982Z,9.80
2023-04-18T09:37:16.776Z,18.07
2023-04-18T09:39:44.752Z,7.87
2023-04-18T09:42:12.433Z,7.60
2023-04-18T09:44:59.611Z,6.17
2023-04-18T09:47:28.110Z,6.27
2023-04-18T09:49:57.458Z,6.40
2023-04-18T09:52:33.003Z,6.13
2023-04-18T09:55:02.921Z,5.53
2023-04-18T09:57:31.711Z,8.30
2023-04-18T10:00:25.387Z,7.10
2023-04-18T10:03:09.896Z,6.87
2023-04-18T10:05:40.481Z,6.70
2023-04-18T10:08:09.404Z,7.20
2023-04-18T10:10:38.557Z,7.00
2023-04-18T10:13:08.495Z,6.60
2023-04-18T10:15:36.078Z,7.77
2023-04-18T10:18:10.269Z,8.70
2023-04-18T10:20:41.742Z,5.70
2023-04-18T10:23:37.360Z,6.93
2023-04-18T10:26:11.158Z,6.13
2023-04-18T10:28:54.649Z,6.17
2023-04-18T10:31:24.054Z,13.37
2023-04-18T10:34:05.385Z,8.20
2023-04-18T10:36:33.682Z,6.10
2023-04-18T10:39:06.142Z,6.80
2023-04-18T10:41:38.330Z,7.53
2023-04-18T10:44:15.554Z,6.43
2023-04-18T10:46:50.451Z,7.47
2023-04-18T10:49:25.354Z,7.67
2023-04-18T10:51:59.356Z,7.53
2023-04-18T10:54:30.840Z,7.23
2023-04-18T10:57:03.354Z,6.27
2023-04-18T10:59:36.459Z,6.93
2023-04-18T11:02:30.792Z,6.00
2023-04-18T11:05:00.219Z,6.80
2023-04-18T11:07:37.082Z,8.33
2023-04-18T11:10:09.611Z,6.10
2023-04-18T11:12:42.927Z,7.27
2023-04-18T11:15:22.289Z,21.37
2023-04-18T11:18:06.423Z,8.10
2023-04-18T11:20:47.356Z,6.90
2023-04-18T11:23:22.853Z,7.10
2023-04-18T11:25:53.697Z,7.63
2023-04-18T11:28:22.351Z,6.70
2023-04-18T11:30:50.287Z,6.33
2023-04-18T11:33:20.187Z,6.63
2023-04-18T11:35:47.233Z,6.47
2023-04-18T11:38:16.799Z,6.27
2023-04-18T11:40:52.440Z,6.70
2023-04-18T11:43:25.369Z,6.40
2023-04-18T11:46:02.600Z,6.53
2023-04-18T11:48:42.127Z,6.17
2023-04-18T11:51:34.020Z,6.57
2023-04-18T11:54:05.902Z,6.67
2023-04-18T11:56:34.577Z,6.10
2023-04-18T11:59:09.561Z,6.57
2023-04-18T12:01:36.450Z,7.20
2023-04-18T12:04:07.999Z,6.10
2023-04-18T12:06:53.707Z,6.37
2023-04-18T12:09:26.379Z,15.47
2023-04-18T12:12:01.012Z,6.67
2023-04-18T12:14:28.558Z,6.60
2023-04-18T12:16:56.208Z,6.33
2023-04-18T12:19:29.906Z,6.03
2023-04-18T12:22:05.100Z,6.13
2023-04-18T12:24:32.412Z,7.27
2023-04-18T12:27:00.098Z,6.63
2023-04-18T12:29:31.206Z,10.53
2023-04-18T12:32:01.095Z,6.90
2023-04-18T12:34:30.685Z,6.90
2023-04-18T12:36:57.578Z,8.23
2023-04-18T12:39:25.910Z,7.00
2023-04-18T12:41:52.788Z,7.10
2023-04-18T12:44:19.654Z,6.47
2023-04-18T12:46:46.660Z,6.50
2023-04-18T12:49:13.803Z,7.30
2023-04-18T12:51:40.734Z,6.60
2023-04-18T12:54:07.583Z,19.00
2023-04-18T12:56:36.697Z,8.50
2023-04-18T12:59:06.557Z,18.00
2023-04-18T13:01:33.478Z,12.43
2023-04-18T13:04:12.270Z,8.43
2023-04-18T13:06:39.615Z,14.73
2023-04-18T13:09:10.299Z,9.70
2023-04-18T13:11:40.124Z,8.53
2023-04-18T13:14:09.613Z,8.97
2023-04-18T13:16:40.552Z,8.10
2023-04-18T13:19:08.598Z,11.83
2023-04-18T13:21:35.475Z,11.57
2023-04-18T13:24:05.385Z,10.50
2023-04-18T13:26:35.591Z,9.90
2023-04-18T13:29:03.888Z,12.20
2023-04-18T13:31:31.469Z,12.27
2023-04-18T13:34:03.133Z,9.97
2023-04-18T13:36:37.229Z,17.53
2023-04-18T13:39:10.550Z,14.37
2023-04-18T13:41:37.481Z,8.53
2023-04-18T13:44:04.622Z,9.90
2023-04-18T13:46:34.611Z,11.00
2023-04-18T13:49:04.785Z,13.13
2023-04-18T13:51:31.700Z,11.50
2023-04-18T13:54:00.857Z,14.00
2023-04-18T13:56:28.256Z,11.63
2023-04-18T13:58:55.939Z,13.97
2023-04-18T14:01:22.818Z,18.87
2023-04-18T14:03:52.053Z,11.17
2023-04-18T14:06:23.482Z,13.70
2023-04-18T14:08:53.151Z,16.73
2023-04-18T14:11:20.997Z,15.93
2023-04-18T14:13:50.551Z,13.87
2023-04-18T14:16:19.111Z,14.73
2023-04-18T14:18:48.614Z,21.53
2023-04-18T14:21:15.486Z,10.77
2023-04-18T14:23:42.394Z,10.70
2023-04-18T14:26:09.276Z,11.40
2023-04-18T14:28:36.224Z,16.90
2023-04-18T14:31:05.455Z,13.23
2023-04-18T14:33:37.449Z,11.50
2023-04-18T14:36:04.856Z,12.30
2023-04-18T14:38:34.084Z,13.27
2023-04-18T14:41:01.218Z,14.43
2023-04-18T14:43:30.967Z,17.60
2023-04-18T14:45:59.482Z,11.63
2023-04-18T14:48:27.856Z,14.33
2023-04-18T14:50:59.712Z,10.60
2023-04-18T14:53:31.482Z,13.13
2023-04-18T14:56:00.757Z,13.37
2023-04-18T14:58:30.136Z,18.17
2023-04-18T15:00:57.143Z,11.80
2023-04-18T15:03:31.458Z,10.93
2023-04-18T15:06:00.660Z,13.17
2023-04-18T15:08:27.679Z,11.07
2023-04-18T15:10:59.314Z,14.83
2023-04-18T15:13:31.310Z,10.90
2023-04-18T15:15:58.318Z,14.73
2023-04-18T15:18:25.274Z,13.67
2023-04-18T15:20:52.254Z,11.60
2023-04-18T15:23:19.302Z,10.77
2023-04-18T15:25:49.101Z,10.50
2023-04-18T15:28:17.752Z,10.97
2023-04-18T15:30:44.774Z,10.20
2023-04-18T15:33:13.531Z,11.70
2023-04-18T15:35:40.472Z,12.90
2023-04-18T15:38:09.823Z,14.97
2023-04-18T15:40:36.688Z,15.30
2023-04-18T15:43:06.392Z,12.60
2023-04-18T15:45:36.126Z,18.60
2023-04-18T15:48:05.829Z,47.67
2023-04-18T15:50:36.747Z,16.93
2023-04-18T15:53:03.654Z,13.37
2023-04-18T15:55:30.498Z,16.50
2023-04-18T15:58:00.438Z,14.30
2023-04-18T16:00:27.658Z,11.57
2023-04-18T16:02:59.163Z,16.70
2023-04-18T16:05:26.173Z,11.60
2023-04-18T16:07:53.952Z,11.90
2023-04-18T16:10:20.880Z,14.50
2023-04-18T16:12:50.317Z,22.10
2023-04-18T16:15:17.322Z,13.73
2023-04-18T16:17:46.716Z,16.53
2023-04-18T16:20:16.127Z,21.87
2023-04-18T16:22:43.104Z,14.83
2023-04-18T16:25:12.814Z,14.00
2023-04-18T16:27:42.672Z,20.50
2023-04-18T16:30:12.329Z,14.53
2023-04-18T16:32:41.563Z,8.73
2023-04-18T16:35:10.233Z,9.77
2023-04-18T16:37:41.142Z,12.63
2023-04-18T16:40:11.230Z,12.80
2023-04-18T16:42:41.134Z,18.13
2023-04-18T16:45:10.532Z,11.80
2023-04-18T16:47:40.742Z,11.07
2023-04-18T16:50:12.476Z,17.87
2023-04-18T16:52:39.830Z,16.57
2023-04-18T16:55:09.594Z,10.50
2023-04-18T16:57:36.566Z,9.50
2023-04-18T17:00:05.357Z,23.30
2023-04-18T17:02:35.045Z,19.20
2023-04-18T17:05:02.498Z,32.03
2023-04-18T17:07:31.623Z,12.73
2023-04-18T17:09:58.683Z,8.30
2023-04-18T17:12:27.942Z,8.43
2023-04-18T17:14:54.884Z,12.40
2023-04-18T17:17:23.586Z,6.37
2023-04-18T17:19:50.769Z,10.03
2023-04-18T17:22:17.794Z,6.07
2023-04-18T17:24:44.743Z,6.07
2023-04-18T17:27:14.079Z,13.57
2023-04-18T17:29:41.393Z,6.30
2023-04-18T17:32:08.360Z,5.53
2023-04-18T17:34:37.464Z,5.37
2023-04-18T17:37:05.390Z,5.70
2023-04-18T17:39:32.832Z,5.50
2023-04-18T17:42:01.040Z,5.40
2023-04-18T17:44:27.947Z,7.23
2023-04-18T17:46:57.186Z,5.80
2023-04-18T17:49:24.095Z,6.13
2023-04-18T17:51:50.978Z,4.90
2023-04-18T17:54:20.031Z,5.77
2023-04-18T17:56:48.666Z,5.77
2023-04-18T17:59:17.885Z,6.60
2023-04-18T18:01:49.497Z,5.23
2023-04-18T18:04:16.734Z,5.27
2023-04-18T18:06:57.154Z,11.93
2023-04-18T18:09:24.060Z,5.90
2023-04-18T18:11:55.830Z,11.10
2023-04-18T18:14:23.453Z,13.97
2023-04-18T18:16:52.870Z,5.33
2023-04-18T18:19:22.767Z,5.07
2023-04-18T18:21:49.790Z,5.03
2023-04-18T18:24:16.806Z,5.07
2023-04-18T18:26:43.831Z,5.00
2023-04-18T18:29:13.264Z,5.87
2023-04-18T18:31:43.021Z,4.83
2023-04-18T18:34:10.336Z,7.93
2023-04-18T18:36:40.195Z,5.47
2023-04-18T18:39:07.148Z,6.83
2023-04-18T18:41:36.294Z,5.00
2023-04-18T18:44:03.224Z,5.20
2023-04-18T18:46:30.200Z,5.20
2023-04-18T18:48:57.175Z,5.27
2023-04-18T18:51:27.121Z,10.03
2023-04-18T18:53:57.448Z,4.80
2023-04-18T18:56:24.712Z,6.00
2023-04-18T18:58:56.133Z,5.30
2023-04-18T19:01:23.403Z,4.70
2023-04-18T19:03:53.082Z,5.67
2023-04-18T19:06:20.208Z,5.57
2023-04-18T19:08:47.182Z,4.77
2023-04-18T19:11:16.298Z,4.90
2023-04-18T19:13:45.795Z,7.00
2023-04-18T19:16:13.131Z,8.50
2023-04-18T19:18:41.437Z,6.40
2023-04-18T19:21:08.386Z,10.50
2023-04-18T19:26:03.020Z,6.07
2023-04-18T19:28:30.531Z,20.00
2023-04-18T19:30:57.520Z,6.93
2023-04-18T19:33:27.544Z,8.00
2023-04-18T19:35:54.373Z,22.90
2023-04-18T19:38:24.995Z,6.20
2023-04-18T19:40:54.317Z,6.30
2023-04-18T19:43:23.707Z,18.17
2023-04-18T19:45:52.061Z,19.50
2023-04-18T19:48:27.614Z,9.70
2023-04-18T19:50:56.617Z,6.83
2023-04-18T19:53:23.885Z,5.90
2023-04-18T19:55:50.932Z,7.00
2023-04-18T19:58:39.793Z,8.10
2023-04-18T20:01:09.998Z,9.70
2023-04-18T20:03:37.082Z,6.23
2023-04-18T20:06:05.679Z,5.97
2023-04-18T20:08:39.306Z,6.10
2023-04-18T20:11:11.121Z,8.03
2023-04-18T20:13:38.252Z,16.23
2023-04-18T20:16:07.278Z,7.70
2023-04-18T20:18:35.972Z,8.63
2023-04-18T20:21:07.884Z,10.57
2023-04-18T20:23:40.498Z,7.50
2023-04-18T20:26:07.507Z,6.97
2023-04-18T20:28:34.882Z,7.53
2023-04-18T20:31:03.295Z,8.27
2023-04-18T20:33:30.436Z,9.90
2023-04-18T20:36:00.367Z,7.73
2023-04-18T20:38:29.798Z,7.07
2023-04-18T20:40:58.821Z,6.93
2023-04-18T20:43:28.092Z,6.60
2023-04-18T20:45:57.978Z,10.70
2023-04-18T20:48:25.064Z,7.93
2023-04-18T20:50:52.366Z,7.60
2023-04-18T20:53:21.259Z,17.63
2023-04-18T20:55:48.828Z,9.47
2023-04-18T20:58:15.931Z,8.20
2023-04-18T21:00:44.564Z,9.23
2023-04-18T21:03:17.309Z,6.17
2023-04-18T21:05:45.577Z,6.40
2023-04-18T21:08:15.066Z,7.50
2023-04-18T21:10:44.086Z,7.70
2023-04-18T21:13:12.606Z,5.50
2023-04-18T21:15:42.047Z,7.60
2023-04-18T21:18:08.985Z,7.73
2023-04-18T21:20:36.877Z,7.10
2023-04-18T21:23:03.913Z,7.53
2023-04-18T21:25:30.832Z,5.43
2023-04-18T21:28:00.213Z,10.07
2023-04-18T21:30:27.351Z,5.60
2023-04-18T21:32:54.239Z,5.67
2023-04-18T21:35:23.378Z,7.57
2023-04-18T21:37:51.755Z,5.70
2023-04-18T21:40:18.917Z,5.23
2023-04-18T21:42:46.537Z,5.53
2023-04-18T21:45:14.732Z,5.00
2023-04-18T21:47:46.810Z,12.43
2023-04-18T21:50:14.101Z,6.73
2023-04-18T21:52:43.132Z,6.80
2023-04-18T21:55:10.235Z,6.97
2023-04-18T21:57:39.366Z,5.13
2023-04-18T22:00:11.246Z,6.13
2023-04-18T22:02:40.215Z,7.40
2023-04-18T22:05:08.033Z,7.40
2023-04-18T22:07:50.140Z,4.57
2023-04-18T22:10:24.792Z,6.20
2023-04-18T22:12:56.310Z,5.53
2023-04-18T22:15:27.172Z,4.73
2023-04-18T22:17:54.486Z,5.37
2023-04-18T22:20:21.707Z,9.53
2023-04-18T22:22:51.549Z,5.83
2023-04-18T22:25:21.468Z,6.33
2023-04-18T22:27:48.360Z,5.57
2023-04-18T22:30:17.525Z,4.83
2023-04-18T22:32:44.528Z,9.43
2023-04-18T22:35:13.934Z,4.10
2023-04-18T22:37:43.991Z,8.13
2023-04-18T22:40:12.484Z,4.00
2023-04-18T22:42:39.817Z,3.80
2023-04-18T22:45:07.834Z,3.80
2023-04-18T22:47:34.775Z,3.63
2023-04-18T22:50:01.676Z,4.00
2023-04-18T22:52:29.686Z,4.40
2023-04-18T22:54:56.712Z,3.47
2023-04-18T22:57:25.947Z,5.13
2023-04-18T22:59:52.784Z,4.40
2023-04-18T23:02:19.783Z,5.13
2023-04-18T23:04:47.000Z,4.00
2023-04-18T23:07:13.944Z,3.83
2023-04-18T23:09:41.151Z,3.50
2023-04-18T23:12:08.087Z,3.93
2023-04-18T23:14:35.887Z,3.70
2023-04-18T23:17:05.368Z,3.93
2023-04-18T23:19:34.475Z,3.80
2023-04-18T23:22:01.335Z,3.73
2023-04-18T23:24:30.709Z,3.07
2023-04-18T23:26:58.102Z,3.30
2023-04-18T23:29:25.002Z,4.43
2023-04-18T23:31:51.910Z,4.30
2023-04-18T23:34:21.811Z,3.70
2023-04-18T23:36:48.768Z,7.20
2023-04-18T23:39:18.363Z,3.73
2023-04-18T23:41:45.636Z,4.23
2023-04-18T23:44:15.041Z,3.93
2023-04-18T23:46:42.228Z,4.10
2023-04-18T23:49:09.214Z,5.70
2023-04-18T23:51:36.238Z,8.40
2023-04-18T23:54:05.564Z,6.73
2023-04-18T23:56:33.528Z,4.57
2023-04-18T23:59:00.369Z,4.37
